Time;durP1;ratioP1;P1;durP2;ratioP2;P2;SDS_P1;SDS_P2;PMS_P1;PMS_P2;Temp;Humidity;BMP_temperature;BMP_pressure;BME280_temperature;BME280_humidity;BME280_pressure;Samples;Min_cycle;Max_cycle;Signal;HPM_P1;HPM_P2
2024/01/28 00:02:23;;;;;;;;;9.50;8.50;;;;;8.00;100.00;100456.97;6101082;28;96461;-56
2024/01/28 00:05:26;;;;;;;;;9.40;9.40;;;;;7.96;100.00;100455.63;6111708;28;96646;-55
2024/01/28 00:08:29;;;;;;;;;11.80;9.80;;;;;7.86;100.00;100454.94;6076069;28;96496;-56
2024/01/28 00:11:34;;;;;;;;;9.00;9.00;;;;;7.80;100.00;100455.59;6075736;28;96351;-56
2024/01/28 00:14:38;;;;;;;;;10.80;9.40;;;;;7.78;100.00;100455.75;6081805;28;96900;-56
2024/01/28 00:17:41;;;;;;;;;12.40;11.00;;;;;7.76;100.00;100462.31;6092178;28;96992;-55
2024/01/28 00:20:44;;;;;;;;;9.60;8.60;;;;;7.66;100.00;100459.78;6115315;28;96252;-56
2024/01/28 00:23:47;;;;;;;;;10.60;9.00;;;;;7.49;100.00;100463.41;6117852;28;96865;-56
2024/01/28 00:26:52;;;;;;;;;10.60;8.60;;;;;7.35;100.00;100464.03;6120159;28;96639;-56
2024/01/28 00:29:55;;;;;;;;;12.80;11.40;;;;;7.29;100.00;100467.38;6136022;28;96272;-56
2024/01/28 00:32:58;;;;;;;;;7.80;7.80;;;;;7.26;100.00;100463.19;6121260;28;96544;-56
2024/01/28 00:36:01;;;;;;;;;9.00;8.00;;;;;7.25;100.00;100457.97;6120967;28;96888;-56
2024/01/28 00:39:04;;;;;;;;;10.60;9.60;;;;;7.25;100.00;100457.97;6117064;28;96395;-56
2024/01/28 00:42:09;;;;;;;;;11.50;10.50;;;;;7.14;100.00;100450.22;6115981;28;98095;-56
2024/01/28 00:45:12;;;;;;;;;9.00;8.60;;;;;7.18;100.00;100460.47;6119513;28;96295;-57
2024/01/28 00:48:15;;;;;;;;;12.60;10.60;;;;;7.17;100.00;100474.03;6135399;28;97733;-57
2024/01/28 00:51:18;;;;;;;;;10.00;8.40;;;;;7.13;100.00;100465.47;6100006;28;96387;-56
2024/01/28 00:54:22;;;;;;;;;10.40;10.00;;;;;7.11;100.00;100472.00;6097178;28;96766;-56
2024/01/28 00:57:26;;;;;;;;;11.40;9.80;;;;;7.07;100.00;100465.28;6096469;28;96845;-56
2024/01/28 01:00:30;;;;;;;;;8.25;8.25;;;;;7.03;100.00;100474.66;6096496;28;96258;-57
2024/01/28 01:03:34;;;;;;;;;8.00;6.00;;;;;6.95;100.00;100473.59;6101618;28;96267;-56
2024/01/28 01:06:37;;;;;;;;;9.40;8.40;;;;;6.92;100.00;100484.66;6105612;28;96822;-56
2024/01/28 01:09:41;;;;;;;;;11.80;9.80;;;;;6.89;100.00;100481.47;6103102;28;97228;-57
2024/01/28 01:12:45;;;;;;;;;9.50;8.00;;;;;6.86;100.00;100487.97;6094258;28;96438;-56
2024/01/28 01:15:49;;;;;;;;;10.00;9.00;;;;;6.83;100.00;100490.13;6094327;28;96366;-56
2024/01/28 01:18:52;;;;;;;;;12.00;11.00;;;;;6.81;100.00;100476.88;6093185;28;96316;-57
2024/01/28 01:21:57;;;;;;;;;11.00;10.00;;;;;6.83;100.00;100477.56;6092905;28;96280;-57
2024/01/28 01:25:00;;;;;;;;;10.40;8.40;;;;;6.83;100.00;100476.72;6093859;28;96388;-57
2024/01/28 01:28:05;;;;;;;;;11.00;10.00;;;;;6.84;100.00;100478.41;6091811;28;96290;-56
2024/01/28 01:31:08;;;;;;;;;11.60;10.60;;;;;6.82;100.00;100480.41;6087670;28;96423;-56
2024/01/28 01:34:11;;;;;;;;;10.80;10.00;;;;;6.78;100.00;100476.34;6091783;28;96350;-56
2024/01/28 01:37:15;;;;;;;;;14.00;12.00;;;;;6.76;100.00;100473.81;6105690;28;97545;-56
2024/01/28 01:40:18;;;;;;;;;10.60;9.60;;;;;6.78;100.00;100487.91;6105893;28;96385;-56
2024/01/28 01:43:22;;;;;;;;;15.00;12.60;;;;;6.86;100.00;100490.66;6106706;28;96425;-56
2024/01/28 01:46:26;;;;;;;;;13.80;12.80;;;;;6.92;100.00;100491.84;6105864;28;96386;-56
2024/01/28 01:49:29;;;;;;;;;12.40;12.00;;;;;6.98;100.00;100480.50;6105356;28;96272;-56
2024/01/28 01:52:33;;;;;;;;;12.67;12.00;;;;;7.02;100.00;100481.00;6104826;28;97662;-56
2024/01/28 01:55:38;;;;;;;;;14.60;13.60;;;;;7.14;100.00;100490.44;6092040;28;96270;-56
2024/01/28 01:58:43;;;;;;;;;12.00;11.00;;;;;7.24;100.00;100491.16;6088876;28;97664;-56
2024/01/28 02:01:47;;;;;;;;;14.00;12.00;;;;;7.34;100.00;100499.91;6074287;28;96396;-56
2024/01/28 02:04:51;;;;;;;;;16.00;14.00;;;;;7.35;100.00;100493.56;6121142;22;97390;-56
2024/01/28 02:07:54;;;;;;;;;14.00;13.00;;;;;7.17;100.00;100452.59;6099687;28;96362;-53
2024/01/28 02:10:57;;;;;;;;;16.00;15.00;;;;;7.39;100.00;100487.69;6137632;28;96147;-55
2024/01/28 02:14:01;;;;;;;;;14.00;12.00;;;;;7.48;100.00;100495.81;6148020;28;96943;-55
2024/01/28 02:17:05;;;;;;;;;16.80;14.00;;;;;7.53;100.00;100486.22;6145365;28;96810;-55
2024/01/28 02:20:08;;;;;;;;;18.00;16.00;;;;;7.59;100.00;100490.09;6133844;28;96362;-55
2024/01/28 02:23:16;;;;;;;;;17.40;15.00;;;;;7.61;100.00;100499.69;6122494;28;96225;-55
2024/01/28 02:26:20;;;;;;;;;14.75;13.75;;;;;7.65;100.00;100503.72;6121864;28;96990;-55
2024/01/28 02:29:23;;;;;;;;;15.80;15.40;;;;;7.71;100.00;100505.75;6122677;28;97041;-55
2024/01/28 02:32:26;;;;;;;;;17.00;15.00;;;;;7.75;100.00;100499.06;6122531;28;96369;-55
2024/01/28 02:35:29;;;;;;;;;17.00;14.60;;;;;7.81;100.00;100501.09;6122490;28;96411;-55
2024/01/28 02:38:34;;;;;;;;;17.40;16.00;;;;;7.85;100.00;100509.66;6122542;28;96880;-55
2024/01/28 02:41:37;;;;;;;;;19.00;17.00;;;;;7.89;100.00;100499.41;6118527;28;96734;-56
2024/01/28 02:44:40;;;;;;;;;17.00;13.60;;;;;7.93;100.00;100500.75;6102008;28;96732;-55
2024/01/28 02:47:43;;;;;;;;;14.25;13.25;;;;;7.94;100.00;100500.59;6096923;28;96519;-53
2024/01/28 02:50:46;;;;;;;;;17.00;14.20;;;;;7.97;100.00;100505.63;6102251;28;96849;-54
2024/01/28 02:53:51;;;;;;;;;20.60;19.00;;;;;8.00;100.00;100509.84;6096391;28;96409;-54
2024/01/28 02:56:54;;;;;;;;;16.20;15.00;;;;;8.02;100.00;100513.19;6098141;28;96372;-54
2024/01/28 02:59:57;;;;;;;;;20.00;18.00;;;;;8.03;100.00;100512.19;6097343;28;96678;-55
2024/01/28 03:03:00;;;;;;;;;22.50;19.50;;;;;8.05;100.00;100512.88;6096618;28;96468;-54
2024/01/28 03:06:04;;;;;;;;;17.40;15.40;;;;;8.07;100.00;100518.91;6096504;28;96374;-55
2024/01/28 03:09:09;;;;;;;;;19.00;17.00;;;;;8.10;100.00;100522.13;6118120;28;97698;-61
2024/01/28 03:12:12;;;;;;;;;16.75;15.00;;;;;8.10;100.00;100523.97;6134046;28;96349;-61
2024/01/28 03:15:15;;;;;;;;;17.60;16.60;;;;;8.18;100.00;100526.66;6106532;28;96495;-61
2024/01/28 03:18:18;;;;;;;;;20.00;19.00;;;;;7.98;100.00;100498.41;6097212;28;96599;-62
2024/01/28 03:21:22;;;;;;;;;20.75;19.00;;;;;8.21;100.00;100534.38;6097019;28;96879;-60
2024/01/28 03:24:26;;;;;;;;;22.60;19.00;;;;;8.22;100.00;100531.53;6097569;28;96459;-60
2024/01/28 03:27:30;;;;;;;;;22.20;19.00;;;;;8.19;100.00;100539.09;6097451;28;98615;-59
2024/01/28 03:30:33;;;;;;;;;19.75;15.25;;;;;8.18;100.00;100537.41;6098617;28;96554;-59
2024/01/28 03:33:37;;;;;;;;;22.20;19.00;;;;;8.20;100.00;100533.56;6124779;28;96273;-60
2024/01/28 03:36:40;;;;;;;;;21.00;17.25;;;;;8.20;100.00;100530.03;6126305;28;96406;-59
2024/01/28 03:39:45;;;;;;;;;21.40;18.00;;;;;8.24;100.00;100534.91;6137584;28;96445;-60
2024/01/28 03:42:48;;;;;;;;;22.00;18.00;;;;;8.28;100.00;100541.63;6143888;28;96275;-57
2024/01/28 03:45:51;;;;;;;;;21.00;18.40;;;;;8.32;100.00;100531.41;6121669;28;96409;-62
2024/01/28 03:48:54;;;;;;;;;22.00;20.00;;;;;8.35;100.00;100535.59;6119900;28;97302;-59
2024/01/28 03:51:58;;;;;;;;;24.00;20.60;;;;;8.35;100.00;100543.69;6121098;28;96337;-59
2024/01/28 03:55:02;;;;;;;;;22.00;19.00;;;;;8.28;100.00;100543.47;6120984;28;96512;-61
2024/01/28 03:58:05;;;;;;;;;21.60;19.40;;;;;8.21;100.00;100545.97;6121583;28;96340;-60
2024/01/28 04:01:09;;;;;;;;;24.20;21.00;;;;;8.18;100.00;100548.16;6132996;28;96451;-59
2024/01/28 04:04:12;;;;;;;;;18.60;18.00;;;;;8.17;100.00;100549.16;6135370;28;96263;-60
2024/01/28 04:07:15;;;;;;;;;20.80;18.20;;;;;8.20;100.00;100557.72;6121509;28;96347;-60
2024/01/28 04:10:20;;;;;;;;;18.25;18.25;;;;;8.24;100.00;100555.53;6130585;28;96296;-59
2024/01/28 04:13:23;;;;;;;;;20.20;18.20;;;;;8.22;100.00;100549.50;6137122;28;96442;-59
2024/01/28 04:16:26;;;;;;;;;20.40;19.40;;;;;8.27;100.00;100558.72;6132827;28;96329;-59
2024/01/28 04:19:29;;;;;;;;;20.00;18.00;;;;;8.35;100.00;100566.00;6111841;28;96351;-57
2024/01/28 04:22:32;;;;;;;;;22.40;19.40;;;;;8.40;100.00;100570.88;6114573;28;96864;-57
2024/01/28 04:25:37;;;;;;;;;20.00;18.50;;;;;8.40;100.00;100552.91;6090519;28;96431;-57
2024/01/28 04:28:41;;;;;;;;;19.00;16.60;;;;;8.44;100.00;100565.00;6090523;28;96274;-58
2024/01/28 04:31:44;;;;;;;;;20.50;18.00;;;;;8.49;100.00;100561.81;6089995;28;96338;-58
2024/01/28 04:34:47;;;;;;;;;21.80;18.00;;;;;8.55;100.00;100564.66;6091693;28;97565;-57
2024/01/28 04:37:51;;;;;;;;;20.50;19.50;;;;;8.56;100.00;100560.97;6103223;28;96377;-57
2024/01/28 04:40:55;;;;;;;;;22.00;21.00;;;;;8.61;100.00;100569.38;6093083;28;96757;-57
2024/01/28 04:43:59;;;;;;;;;19.40;18.00;;;;;8.66;100.00;100566.16;6101766;28;96261;-57
2024/01/28 04:47:02;;;;;;;;;22.00;19.40;;;;;8.69;100.00;100576.59;6098621;28;96701;-57
2024/01/28 04:50:07;;;;;;;;;21.40;17.40;;;;;8.67;100.00;100565.16;6097871;28;97020;-56
2024/01/28 04:53:10;;;;;;;;;18.00;18.00;;;;;8.70;100.00;100572.88;6093922;28;97616;-57
2024/01/28 04:56:15;;;;;;;;;18.40;17.00;;;;;8.72;100.00;100578.09;6095803;28;96874;-58
2024/01/28 04:59:18;;;;;;;;;19.00;17.00;;;;;8.66;100.00;100558.09;6112337;28;96553;-57
2024/01/28 05:02:21;;;;;;;;;21.00;19.00;;;;;8.66;100.00;100583.16;6095274;28;96387;-57
2024/01/28 05:05:24;;;;;;;;;18.75;17.50;;;;;8.64;100.00;100598.63;6089599;28;96518;-57
2024/01/28 05:08:28;;;;;;;;;21.00;18.75;;;;;8.66;100.00;100598.44;6093612;28;96970;-58
2024/01/28 05:11:32;;;;;;;;;20.60;19.60;;;;;8.71;100.00;100601.47;6094770;28;96693;-57
2024/01/28 05:14:35;;;;;;;;;20.00;19.00;;;;;8.58;100.00;100575.09;6092307;28;96368;-57
2024/01/28 05:17:38;;;;;;;;;18.00;18.00;;;;;8.75;100.00;100610.06;6103110;28;96735;-58
2024/01/28 05:20:42;;;;;;;;;20.00;18.40;;;;;8.80;100.00;100615.75;6094081;28;96887;-58
2024/01/28 05:23:46;;;;;;;;;21.00;19.67;;;;;8.81;100.00;100620.97;6088274;28;96426;-58
2024/01/28 05:26:51;;;;;;;;;21.25;19.00;;;;;8.81;100.00;100622.81;6082827;28;97041;-58
2024/01/28 05:29:55;;;;;;;;;23.00;19.00;;;;;8.83;100.00;100631.56;6099399;28;96750;-61
2024/01/28 05:32:58;;;;;;;;;23.40;21.00;;;;;8.86;100.00;100629.38;6119180;28;98885;-59
2024/01/28 05:36:02;;;;;;;;;20.75;18.00;;;;;8.91;100.00;100640.47;6123494;28;98387;-61
2024/01/28 05:39:05;;;;;;;;;14.80;14.80;;;;;8.86;100.00;100631.22;6136184;28;99142;-62
2024/01/28 05:42:09;;;;;;;;;21.60;20.00;;;;;8.90;100.00;100635.25;6127936;28;96878;-61
2024/01/28 05:45:13;;;;;;;;;20.20;17.20;;;;;8.94;100.00;100642.81;6130153;28;96430;-62
2024/01/28 05:48:16;;;;;;;;;21.20;20.00;;;;;8.85;100.00;100626.84;6118882;28;96388;-60
2024/01/28 05:51:20;;;;;;;;;21.00;19.40;;;;;8.96;100.00;100642.66;6123536;28;97046;-58
2024/01/28 05:54:23;;;;;;;;;17.60;16.60;;;;;8.88;100.00;100643.50;6131128;28;96485;-60
2024/01/28 05:57:27;;;;;;;;;20.80;18.20;;;;;8.81;100.00;100649.69;6127135;28;96414;-60
2024/01/28 06:00:31;;;;;;;;;19.40;18.40;;;;;8.77;100.00;100651.06;6109441;28;96640;-60
2024/01/28 06:03:34;;;;;;;;;21.60;20.20;;;;;8.79;100.00;100649.06;6114087;28;96273;-59
2024/01/28 06:06:37;;;;;;;;;20.50;19.50;;;;;8.82;100.00;100649.53;6119529;28;97014;-62
2024/01/28 06:09:40;;;;;;;;;25.50;22.00;;;;;8.81;100.00;100644.31;6114671;28;96338;-61
2024/01/28 06:12:45;;;;;;;;;22.40;20.60;;;;;8.81;100.00;100647.88;6116460;28;96454;-61
2024/01/28 06:15:48;;;;;;;;;22.00;19.60;;;;;8.78;100.00;100653.59;6116009;28;97898;-60
2024/01/28 06:18:51;;;;;;;;;24.40;21.00;;;;;8.79;100.00;100647.22;6113931;28;97065;-61
2024/01/28 06:21:55;;;;;;;;;20.80;19.20;;;;;8.80;100.00;100651.56;6114892;28;96680;-61
2024/01/28 06:24:59;;;;;;;;;21.00;19.60;;;;;8.78;100.00;100644.66;6114701;28;96457;-60
2024/01/28 06:28:05;;;;;;;;;24.00;22.00;;;;;8.86;100.00;100653.56;6111641;28;96881;-60
2024/01/28 06:31:08;;;;;;;;;19.75;18.00;;;;;8.85;100.00;100651.88;6110385;28;96270;-61
2024/01/28 06:34:11;;;;;;;;;24.40;23.00;;;;;8.88;100.00;100656.09;6111772;28;96182;-59
2024/01/28 06:37:14;;;;;;;;;21.00;18.00;;;;;8.91;100.00;100655.75;6114615;28;96394;-61
2024/01/28 06:40:17;;;;;;;;;21.00;19.00;;;;;8.92;100.00;100666.38;6099222;28;96910;-56
2024/01/28 06:43:22;;;;;;;;;22.20;20.00;;;;;8.98;100.00;100668.38;6097476;28;96593;-55
2024/01/28 06:46:25;;;;;;;;;20.50;17.00;;;;;8.97;100.00;100671.25;6091727;28;96455;-55
2024/01/28 06:49:29;;;;;;;;;20.00;17.20;;;;;9.04;100.00;100678.47;6094140;28;96346;-55
2024/01/28 06:52:32;;;;;;;;;22.00;21.40;;;;;9.05;100.00;100668.53;6092946;28;96338;-55
2024/01/28 06:55:35;;;;;;;;;21.50;20.50;;;;;9.09;100.00;100664.50;6087385;28;96535;-55
2024/01/28 06:58:40;;;;;;;;;24.25;21.00;;;;;9.10;100.00;100666.19;6097937;28;96283;-55
2024/01/28 07:01:44;;;;;;;;;21.00;19.60;;;;;9.07;100.00;100653.06;6092672;28;97362;-55
2024/01/28 07:04:48;;;;;;;;;22.60;19.00;;;;;9.18;100.00;100665.34;6089782;28;96560;-55
2024/01/28 07:07:51;;;;;;;;;23.00;21.00;;;;;9.21;100.00;100663.16;6090150;28;97685;-55
2024/01/28 07:10:55;;;;;;;;;22.40;20.40;;;;;9.26;100.00;100662.66;6099669;28;98504;-54
2024/01/28 07:13:59;;;;;;;;;22.50;20.50;;;;;9.34;100.00;100673.38;6086688;28;96943;-56
2024/01/28 07:17:02;;;;;;;;;22.40;20.40;;;;;9.32;100.00;100676.28;6098779;28;96954;-55
2024/01/28 07:20:07;;;;;;;;;22.00;21.00;;;;;9.35;100.00;100684.00;6099318;28;96391;-55
2024/01/28 07:23:11;;;;;;;;;25.75;21.75;;;;;9.42;100.00;100685.00;6096319;28;96336;-55
2024/01/28 07:26:14;;;;;;;;;27.80;22.40;;;;;9.37;100.00;100682.00;6087978;28;96854;-55
2024/01/28 07:29:18;;;;;;;;;19.80;18.80;;;;;9.49;100.00;100693.22;6087427;28;96838;-56
2024/01/28 07:32:21;;;;;;;;;24.20;22.00;;;;;9.49;100.00;100693.22;6088221;28;97137;-56
2024/01/28 07:35:24;;;;;;;;;20.00;17.00;;;;;9.49;100.00;100691.38;6085888;28;97015;-57
2024/01/28 07:38:28;;;;;;;;;20.60;19.60;;;;;9.44;100.00;100691.03;6086636;28;96412;-56
2024/01/28 07:41:34;;;;;;;;;21.00;20.00;;;;;9.57;100.00;100702.16;6089933;28;96746;-56
2024/01/28 07:44:38;;;;;;;;;21.25;19.75;;;;;9.55;100.00;100712.25;6088672;28;96887;-54
2024/01/28 07:47:41;;;;;;;;;26.00;22.50;;;;;9.53;100.00;100710.72;6090416;28;96708;-56
2024/01/28 07:50:45;;;;;;;;;23.00;21.80;;;;;9.57;100.00;100707.53;6113575;28;96445;-61
2024/01/28 07:53:48;;;;;;;;;25.25;23.00;;;;;9.53;100.00;100697.25;6098026;28;96332;-60
2024/01/28 07:56:52;;;;;;;;;28.00;24.60;;;;;9.63;100.00;100706.00;6095357;28;98570;-58
2024/01/28 07:59:56;;;;;;;;;27.00;24.00;;;;;9.67;100.00;100711.91;6100022;28;96276;-61
2024/01/28 08:03:00;;;;;;;;;21.40;20.40;;;;;9.71;100.00;100718.63;6098252;28;96786;-60
2024/01/28 08:06:04;;;;;;;;;23.00;19.00;;;;;9.68;100.00;100713.56;6104412;28;96817;-60
2024/01/28 08:09:07;;;;;;;;;26.00;23.50;;;;;9.75;100.00;100719.94;6098818;28;96342;-60
2024/01/28 08:12:11;;;;;;;;;24.00;21.00;;;;;9.77;100.00;100717.94;6098688;28;97152;-60
2024/01/28 08:15:16;;;;;;;;;25.25;22.00;;;;;9.74;100.00;100720.97;6104725;28;96349;-60
2024/01/28 08:18:19;;;;;;;;;24.75;21.75;;;;;9.71;100.00;100722.16;6092856;28;97044;-61
2024/01/28 08:21:22;;;;;;;;;23.75;21.00;;;;;9.71;100.00;100726.69;6097509;28;96800;-61
2024/01/28 08:24:26;;;;;;;;;25.00;22.60;;;;;9.72;100.00;100731.06;6100152;28;96384;-62
2024/01/28 08:27:30;;;;;;;;;23.00;22.00;;;;;9.73;100.00;100724.66;6095501;28;96422;-61
2024/01/28 08:30:34;;;;;;;;;22.20;20.60;;;;;9.74;100.00;100737.13;6098224;28;96890;-61
2024/01/28 08:33:37;;;;;;;;;23.75;21.00;;;;;9.61;100.00;100710.72;6099215;28;96342;-60
2024/01/28 08:36:41;;;;;;;;;23.60;21.20;;;;;9.70;100.00;100735.78;6099104;28;96357;-61
2024/01/28 08:39:44;;;;;;;;;19.00;17.75;;;;;9.60;100.00;100727.03;6099296;28;96511;-61
2024/01/28 08:42:47;;;;;;;;;26.00;24.00;;;;;9.66;100.00;100726.38;6096601;28;97027;-61
2024/01/28 08:45:52;;;;;;;;;21.25;20.25;;;;;9.66;100.00;100729.06;6119880;28;96827;-61
2024/01/28 08:48:55;;;;;;;;;24.50;21.00;;;;;9.70;100.00;100730.41;6108868;28;96376;-61
2024/01/28 08:51:59;;;;;;;;;23.60;22.40;;;;;9.68;100.00;100741.34;6105883;28;96575;-59
2024/01/28 08:55:02;;;;;;;;;22.80;19.20;;;;;9.59;100.00;100728.91;6095804;28;98466;-59
2024/01/28 08:58:06;;;;;;;;;22.40;21.00;;;;;9.58;100.00;100741.50;6102084;28;97017;-60
2024/01/28 09:01:13;;;;;;;;;21.00;19.00;;;;;9.66;100.00;100732.59;6122897;28;97560;-59
2024/01/28 09:04:16;;;;;;;;;26.50;23.50;;;;;9.63;100.00;100737.50;6105816;28;96176;-61
2024/01/28 09:07:20;;;;;;;;;27.60;23.60;;;;;9.65;100.00;100733.59;6099847;28;96709;-60
2024/01/28 09:10:23;;;;;;;;;25.00;22.25;;;;;9.76;100.00;100738.63;6096341;28;96627;-61
2024/01/28 09:13:26;;;;;;;;;21.60;20.60;;;;;9.83;100.00;100744.16;6095404;28;96382;-61
2024/01/28 09:16:31;;;;;;;;;25.00;21.60;;;;;9.81;100.00;100751.59;6095030;28;96517;-62
2024/01/28 09:19:34;;;;;;;;;22.50;20.50;;;;;9.70;100.00;100749.25;6106997;28;99716;-60
2024/01/28 09:22:38;;;;;;;;;25.00;23.00;;;;;9.74;100.00;100748.75;6094686;28;96512;-59
2024/01/28 09:25:42;;;;;;;;;22.50;21.00;;;;;9.85;100.00;100756.47;6095972;28;96975;-60
2024/01/28 09:28:45;;;;;;;;;23.40;21.00;;;;;9.90;100.00;100761.34;6106929;28;97220;-60
2024/01/28 09:31:49;;;;;;;;;25.60;23.40;;;;;9.98;100.00;100761.31;6117518;28;96979;-61
2024/01/28 09:34:53;;;;;;;;;20.00;19.00;;;;;10.02;100.00;100761.81;6101439;28;96758;-60
2024/01/28 09:37:57;;;;;;;;;21.00;19.00;;;;;10.03;100.00;100750.84;6107137;28;96334;-61
2024/01/28 09:41:06;;;;;;;;;23.75;21.25;;;;;9.96;100.00;100755.28;6107842;28;96496;-59
2024/01/28 09:44:09;;;;;;;;;20.40;20.00;;;;;9.99;100.00;100769.22;6097980;28;96406;-61
2024/01/28 09:47:14;;;;;;;;;19.40;18.40;;;;;9.94;100.00;100768.06;6094847;28;96416;-59
2024/01/28 09:50:17;;;;;;;;;28.00;24.40;;;;;9.89;100.00;100765.88;6093677;28;96867;-61
2024/01/28 09:53:21;;;;;;;;;22.00;19.75;;;;;9.88;100.00;100760.66;6104317;28;96375;-61
2024/01/28 09:56:25;;;;;;;;;22.40;21.40;;;;;9.89;100.00;100757.81;6106294;28;97160;-61
2024/01/28 09:59:29;;;;;;;;;21.00;19.60;;;;;9.91;100.00;100765.72;6103286;28;96717;-61
2024/01/28 10:02:35;;;;;;;;;22.00;21.00;;;;;10.00;100.00;100770.91;6104066;28;96526;-61
2024/01/28 10:05:38;;;;;;;;;22.60;20.40;;;;;9.93;100.00;100772.59;6096525;28;97106;-61
2024/01/28 10:08:42;;;;;;;;;24.00;22.00;;;;;9.92;100.00;100772.81;6094590;28;98446;-57
2024/01/28 10:11:46;;;;;;;;;23.33;22.33;;;;;9.93;100.00;100775.31;6081663;28;96419;-57
2024/01/28 10:14:52;;;;;;;;;25.00;23.60;;;;;9.97;100.00;100778.47;6091981;28;96689;-57
2024/01/28 10:17:56;;;;;;;;;25.00;22.75;;;;;10.05;100.00;100777.63;6092438;28;96687;-57
2024/01/28 10:21:00;;;;;;;;;21.00;20.00;;;;;10.10;100.00;100778.81;6089751;28;96400;-57
2024/01/28 10:24:03;;;;;;;;;27.20;22.80;;;;;10.12;100.00;100781.31;6091289;28;96377;-58
2024/01/28 10:27:07;;;;;;;;;25.40;22.60;;;;;10.15;100.00;100771.03;6090357;28;98623;-57
2024/01/28 10:30:12;;;;;;;;;21.60;20.80;;;;;10.19;100.00;100776.97;6090841;28;98711;-57
2024/01/28 10:33:17;;;;;;;;;24.40;22.80;;;;;10.15;100.00;100775.59;6084923;28;96422;-58
2024/01/28 10:36:20;;;;;;;;;27.00;22.00;;;;;10.18;100.00;100772.56;6100699;28;96702;-57
2024/01/28 10:39:23;;;;;;;;;22.25;21.00;;;;;10.17;100.00;100769.03;6091832;28;96620;-57
2024/01/28 10:42:28;;;;;;;;;24.00;22.00;;;;;10.15;100.00;100764.81;6092203;28;96339;-58
2024/01/28 10:45:31;;;;;;;;;25.00;23.75;;;;;10.15;100.00;100756.72;6091631;28;96610;-56
2024/01/28 10:48:42;;;;;;;;;25.40;24.40;;;;;10.11;100.00;100748.16;6089238;28;96492;-57
2024/01/28 10:51:47;;;;;;;;;25.00;22.40;;;;;10.10;100.00;100753.72;6091569;28;96908;-57
2024/01/28 10:54:51;;;;;;;;;26.00;23.00;;;;;10.14;100.00;100750.50;6091665;28;96522;-57
2024/01/28 10:57:56;;;;;;;;;24.00;22.00;;;;;10.22;100.00;100755.88;6091340;28;96224;-57
2024/01/28 11:01:00;;;;;;;;;25.00;22.20;;;;;10.29;100.00;100762.25;6090632;28;96869;-57
2024/01/28 11:04:05;;;;;;;;;25.00;24.00;;;;;10.30;100.00;100747.78;6085347;28;96478;-57
2024/01/28 11:07:09;;;;;;;;;25.00;25.00;;;;;10.35;100.00;100756.19;6085158;28;97110;-57
2024/01/28 11:10:12;;;;;;;;;27.00;26.60;;;;;10.34;100.00;100754.50;6089748;28;96984;-57
2024/01/28 11:13:15;;;;;;;;;24.80;21.00;;;;;10.36;100.00;100754.34;6082491;28;96487;-57
2024/01/28 11:16:19;;;;;;;;;25.60;23.00;;;;;10.29;100.00;100738.00;6090692;28;96508;-57
2024/01/28 11:19:28;;;;;;;;;26.25;24.00;;;;;10.37;100.00;100750.59;6088989;28;96008;-59
2024/01/28 11:22:47;;;;;;;;;25.00;22.80;;;;;10.58;100.00;100761.63;6094917;28;97143;-59
2024/01/28 11:25:54;;;;;;;;;24.40;22.60;;;;;10.70;100.00;100757.50;6094755;28;96986;-61
2024/01/28 11:28:58;;;;;;;;;28.00;26.40;;;;;10.76;100.00;100759.50;6103399;28;96453;-61
2024/01/28 11:32:05;;;;;;;;;25.00;23.00;;;;;10.73;100.00;100737.44;6103163;28;96362;-59
2024/01/28 11:35:10;;;;;;;;;22.40;21.00;;;;;10.95;100.00;100762.75;6101125;28;96504;-61
2024/01/28 11:38:21;;;;;;;;;21.20;20.20;;;;;11.03;100.00;100766.25;6100933;28;96338;-61
2024/01/28 11:41:27;;;;;;;;;24.20;20.80;;;;;10.98;100.00;100757.88;6102588;28;96461;-61
2024/01/28 11:44:30;;;;;;;;;23.00;21.60;;;;;11.01;100.00;100768.28;6100590;28;96934;-59
2024/01/28 11:47:44;;;;;;;;;21.00;19.25;;;;;11.00;100.00;100768.47;6101181;28;96841;-60
2024/01/28 11:50:49;;;;;;;;;25.00;23.20;;;;;10.99;100.00;100769.50;6102815;28;96396;-62
2024/01/28 11:53:52;;;;;;;;;19.00;18.00;;;;;10.83;100.00;100768.59;6099474;28;97470;-61
2024/01/28 11:56:55;;;;;;;;;21.20;19.20;;;;;10.80;100.00;100766.22;6101395;28;96408;-61
2024/01/28 11:59:58;;;;;;;;;23.75;22.00;;;;;10.82;100.00;100768.75;6096602;28;97419;-61
2024/01/28 12:03:03;;;;;;;;;22.60;22.00;;;;;10.82;100.00;100760.66;6098705;28;99029;-61
2024/01/28 12:06:09;;;;;;;;;21.00;20.00;;;;;10.84;100.00;100764.03;6122178;28;96407;-60
2024/01/28 12:09:12;;;;;;;;;20.60;19.40;;;;;10.86;100.00;100761.97;6123145;28;96323;-62
2024/01/28 12:12:15;;;;;;;;;22.80;20.80;;;;;10.91;100.00;100761.44;6111044;28;96986;-60
2024/01/28 12:15:20;;;;;;;;;20.00;18.75;;;;;10.94;100.00;100771.91;6110960;28;98611;-61
2024/01/28 12:18:23;;;;;;;;;24.20;21.00;;;;;10.91;100.00;100775.78;6134459;28;96436;-58
2024/01/28 12:21:28;;;;;;;;;21.40;20.00;;;;;10.92;100.00;100773.91;6131047;28;96318;-61
2024/01/28 12:24:32;;;;;;;;;22.75;21.00;;;;;10.94;100.00;100774.59;6125172;28;96395;-60
2024/01/28 12:27:35;;;;;;;;;23.60;22.60;;;;;10.96;100.00;100772.53;6114151;28;96473;-60
2024/01/28 12:30:39;;;;;;;;;26.00;24.00;;;;;10.99;100.00;100775.75;6106893;28;96414;-55
2024/01/28 12:33:44;;;;;;;;;27.00;25.00;;;;;11.01;100.00;100781.78;6115798;28;96610;-54
2024/01/28 12:36:49;;;;;;;;;27.00;25.50;;;;;11.04;100.00;100781.44;6118114;28;96296;-54
2024/01/28 12:39:52;;;;;;;;;29.00;27.00;;;;;10.98;100.00;100781.31;6113019;28;96356;-54
2024/01/28 12:42:56;;;;;;;;;28.50;26.00;;;;;10.94;100.00;100774.59;6108251;28;96449;-54
2024/01/28 12:45:59;;;;;;;;;31.00;29.00;;;;;10.92;100.00;100776.63;6117134;28;96882;-58
2024/01/28 12:49:02;;;;;;;;;32.60;29.00;;;;;10.88;100.00;100773.44;6117449;28;96317;-55
2024/01/28 12:52:08;;;;;;;;;29.25;26.25;;;;;10.84;100.00;100775.66;6117495;28;96255;-55
2024/01/28 12:55:12;;;;;;;;;32.00;29.00;;;;;10.83;100.00;100778.53;6116952;28;96574;-55
2024/01/28 12:58:15;;;;;;;;;30.60;28.20;;;;;10.83;100.00;100759.66;6113710;28;96317;-55
2024/01/28 13:01:18;;;;;;;;;31.60;29.00;;;;;10.80;100.00;100768.06;6114726;28;96668;-55
2024/01/28 13:04:23;;;;;;;;;34.00;29.50;;;;;10.74;100.00;100782.28;6099122;28;96911;-55
2024/01/28 13:07:27;;;;;;;;;35.00;31.00;;;;;10.71;100.00;100783.47;6116144;28;96483;-55
2024/01/28 13:10:30;;;;;;;;;34.00;30.00;;;;;10.70;100.00;100787.19;6116375;28;96424;-55
2024/01/28 13:13:36;;;;;;;;;34.00;31.00;;;;;10.68;100.00;100788.38;6116404;28;96453;-55
2024/01/28 13:16:39;;;;;;;;;31.50;28.50;;;;;10.72;100.00;100789.72;6114533;28;97571;-55
2024/01/28 13:19:42;;;;;;;;;33.40;30.00;;;;;10.74;100.00;100791.22;6124049;28;96396;-55
2024/01/28 13:22:47;;;;;;;;;38.00;31.00;;;;;10.70;100.00;100795.28;6117302;28;96497;-55
2024/01/28 13:25:50;;;;;;;;;38.00;30.00;;;;;10.73;100.00;100794.09;6118045;28;96322;-54
2024/01/28 13:28:53;;;;;;;;;35.00;31.00;;;;;10.69;100.00;100790.91;6123767;28;96488;-56
2024/01/28 13:31:56;;;;;;;;;32.40;29.80;;;;;10.70;100.00;100789.06;6133524;28;96354;-55
2024/01/28 13:35:00;;;;;;;;;35.80;30.40;;;;;10.67;100.00;100790.25;6131981;28;96935;-56
2024/01/28 13:38:05;;;;;;;;;37.40;31.40;;;;;10.59;100.00;100784.91;6121608;28;96355;-55
2024/01/28 13:41:08;;;;;;;;;33.00;30.40;;;;;10.62;100.00;100794.47;6109723;28;96575;-58
2024/01/28 13:44:11;;;;;;;;;34.40;30.40;;;;;10.62;100.00;100797.19;6118959;28;97197;-59
2024/01/28 13:47:14;;;;;;;;;35.80;31.80;;;;;10.61;100.00;100798.19;6118871;28;97682;-59
2024/01/28 13:50:18;;;;;;;;;34.40;30.40;;;;;10.59;100.00;100798.38;6129559;28;96571;-59
2024/01/28 13:53:22;;;;;;;;;32.50;30.00;;;;;10.48;100.00;100792.53;6132962;28;96543;-59